sensor_id;sensor_type;location;lat;lon;timestamp;P1;durP1;ratioP1;P2;durP2;ratioP2
9729;SDS011;4904;49.152;11.004;2022-07-11T00:02:04;3.95;;;1.15;;
9729;SDS011;4904;49.152;11.004;2022-07-11T00:04:34;2.03;;;1.30;;
9729;SDS011;4904;49.152;11.004;2022-07-11T00:07:01;2.20;;;1.20;;
9729;SDS011;4904;49.152;11.004;2022-07-11T00:09:29;1.80;;;1.23;;
9729;SDS011;4904;49.152;11.004;2022-07-11T00:11:57;2.38;;;1.40;;
9729;SDS011;4904;49.152;11.004;2022-07-11T00:14:25;2.45;;;1.23;;
9729;SDS011;4904;49.152;11.004;2022-07-11T00:16:53;1.83;;;1.27;;
9729;SDS011;4904;49.152;11.004;2022-07-11T00:19:20;1.48;;;1.38;;
9729;SDS011;4904;49.152;11.004;2022-07-11T00:21:47;2.17;;;1.42;;
9729;SDS011;4904;49.152;11.004;2022-07-11T00:24:15;2.13;;;1.40;;
9729;SDS011;4904;49.152;11.004;2022-07-11T00:26:44;2.78;;;1.52;;
9729;SDS011;4904;49.152;11.004;2022-07-11T00:29:12;3.53;;;1.38;;
9729;SDS011;4904;49.152;11.004;2022-07-11T00:31:40;2.63;;;1.45;;
9729;SDS011;4904;49.152;11.004;2022-07-11T00:34:07;2.33;;;1.50;;
9729;SDS011;4904;49.152;11.004;2022-07-11T00:36:34;3.28;;;1.30;;
9729;SDS011;4904;49.152;11.004;2022-07-11T00:39:02;2.38;;;1.50;;
9729;SDS011;4904;49.152;11.004;2022-07-11T00:41:30;3.22;;;1.60;;
9729;SDS011;4904;49.152;11.004;2022-07-11T00:43:57;1.73;;;1.42;;
9729;SDS011;4904;49.152;11.004;2022-07-11T00:46:25;1.38;;;1.23;;
9729;SDS011;4904;49.152;11.004;2022-07-11T00:48:55;1.75;;;1.27;;
9729;SDS011;4904;49.152;11.004;2022-07-11T00:51:22;1.80;;;1.55;;
9729;SDS011;4904;49.152;11.004;2022-07-11T00:53:51;1.77;;;1.30;;
9729;SDS011;4904;49.152;11.004;2022-07-11T00:56:19;2.67;;;1.50;;
9729;SDS011;4904;49.152;11.004;2022-07-11T00:58:48;1.67;;;1.35;;
9729;SDS011;4904;49.152;11.004;2022-07-11T01:01:15;1.73;;;1.30;;
9729;SDS011;4904;49.152;11.004;2022-07-11T01:03:42;2.42;;;1.25;;
9729;SDS011;4904;49.152;11.004;2022-07-11T01:06:12;2.72;;;1.42;;
9729;SDS011;4904;49.152;11.004;2022-07-11T01:08:39;2.45;;;1.45;;
9729;SDS011;4904;49.152;11.004;2022-07-11T01:11:07;2.65;;;1.17;;
9729;SDS011;4904;49.152;11.004;2022-07-11T01:13:37;1.60;;;1.27;;
9729;SDS011;4904;49.152;11.004;2022-07-11T01:16:09;1.80;;;1.25;;
9729;SDS011;4904;49.152;11.004;2022-07-11T01:18:38;1.83;;;1.27;;
9729;SDS011;4904;49.152;11.004;2022-07-11T01:21:07;3.45;;;1.40;;
9729;SDS011;4904;49.152;11.004;2022-07-11T01:23:45;1.80;;;1.40;;
9729;SDS011;4904;49.152;11.004;2022-07-11T01:26:13;2.72;;;1.17;;
9729;SDS011;4904;49.152;11.004;2022-07-11T01:28:41;2.55;;;1.23;;
9729;SDS011;4904;49.152;11.004;2022-07-11T01:31:08;3.00;;;1.20;;
9729;SDS011;4904;49.152;11.004;2022-07-11T01:33:34;1.88;;;1.30;;
9729;SDS011;4904;49.152;11.004;2022-07-11T01:36:02;1.58;;;1.30;;
9729;SDS011;4904;49.152;11.004;2022-07-11T01:38:29;2.50;;;1.50;;
9729;SDS011;4904;49.152;11.004;2022-07-11T01:40:58;2.38;;;1.40;;
9729;SDS011;4904;49.152;11.004;2022-07-11T01:43:25;3.30;;;1.20;;
9729;SDS011;4904;49.152;11.004;2022-07-11T01:45:52;1.75;;;1.33;;
9729;SDS011;4904;49.152;11.004;2022-07-11T01:48:19;1.95;;;1.10;;
9729;SDS011;4904;49.152;11.004;2022-07-11T01:50:46;2.05;;;1.40;;
9729;SDS011;4904;49.152;11.004;2022-07-11T01:53:15;2.53;;;1.48;;
9729;SDS011;4904;49.152;11.004;2022-07-11T01:55:42;2.90;;;1.55;;
9729;SDS011;4904;49.152;11.004;2022-07-11T01:58:10;3.20;;;1.30;;
9729;SDS011;4904;49.152;11.004;2022-07-11T02:00:37;1.77;;;1.55;;
9729;SDS011;4904;49.152;11.004;2022-07-11T02:03:04;4.45;;;1.40;;
9729;SDS011;4904;49.152;11.004;2022-07-11T02:05:31;2.13;;;1.13;;
9729;SDS011;4904;49.152;11.004;2022-07-11T02:07:58;2.90;;;1.23;;
9729;SDS011;4904;49.152;11.004;2022-07-11T02:10:41;2.42;;;1.60;;
9729;SDS011;4904;49.152;11.004;2022-07-11T02:13:11;1.88;;;1.42;;
9729;SDS011;4904;49.152;11.004;2022-07-11T02:15:39;1.52;;;1.30;;
9729;SDS011;4904;49.152;11.004;2022-07-11T02:18:07;1.48;;;1.38;;
9729;SDS011;4904;49.152;11.004;2022-07-11T02:20:35;2.38;;;1.40;;
9729;SDS011;4904;49.152;11.004;2022-07-11T02:23:03;1.80;;;1.25;;
9729;SDS011;4904;49.152;11.004;2022-07-11T02:25:30;3.65;;;1.50;;
9729;SDS011;4904;49.152;11.004;2022-07-11T02:28:00;4.05;;;1.20;;
9729;SDS011;4904;49.152;11.004;2022-07-11T02:30:29;2.58;;;1.42;;
9729;SDS011;4904;49.152;11.004;2022-07-11T02:32:56;1.30;;;1.20;;
9729;SDS011;4904;49.152;11.004;2022-07-11T02:35:22;1.83;;;1.20;;
9729;SDS011;4904;49.152;11.004;2022-07-11T02:37:50;1.90;;;1.30;;
9729;SDS011;4904;49.152;11.004;2022-07-11T02:40:17;3.80;;;1.65;;
9729;SDS011;4904;49.152;11.004;2022-07-11T02:42:43;1.70;;;1.45;;
9729;SDS011;4904;49.152;11.004;2022-07-11T02:45:10;2.92;;;1.13;;
9729;SDS011;4904;49.152;11.004;2022-07-11T02:47:39;1.70;;;1.42;;
9729;SDS011;4904;49.152;11.004;2022-07-11T02:50:08;3.45;;;1.30;;
9729;SDS011;4904;49.152;11.004;2022-07-11T02:52:36;1.83;;;1.20;;
9729;SDS011;4904;49.152;11.004;2022-07-11T02:55:03;2.90;;;1.20;;
9729;SDS011;4904;49.152;11.004;2022-07-11T02:57:32;2.75;;;1.30;;
9729;SDS011;4904;49.152;11.004;2022-07-11T02:59:59;1.88;;;1.20;;
9729;SDS011;4904;49.152;11.004;2022-07-11T03:02:26;1.20;;;1.10;;
9729;SDS011;4904;49.152;11.004;2022-07-11T03:04:54;3.95;;;1.35;;
9729;SDS011;4904;49.152;11.004;2022-07-11T03:07:22;1.65;;;1.23;;
9729;SDS011;4904;49.152;11.004;2022-07-11T03:09:49;1.65;;;1.23;;
9729;SDS011;4904;49.152;11.004;2022-07-11T03:12:16;1.77;;;1.30;;
9729;SDS011;4904;49.152;11.004;2022-07-11T03:14:43;1.00;;;1.00;;
9729;SDS011;4904;49.152;11.004;2022-07-11T03:17:10;1.17;;;1.10;;
9729;SDS011;4904;49.152;11.004;2022-07-11T03:19:37;2.40;;;1.10;;
9729;SDS011;4904;49.152;11.004;2022-07-11T03:22:05;1.10;;;1.00;;
9729;SDS011;4904;49.152;11.004;2022-07-11T03:24:33;3.15;;;1.30;;
9729;SDS011;4904;49.152;11.004;2022-07-11T03:27:01;2.65;;;1.00;;
9729;SDS011;4904;49.152;11.004;2022-07-11T03:29:28;1.65;;;1.40;;
9729;SDS011;4904;49.152;11.004;2022-07-11T03:31:54;1.10;;;1.00;;
9729;SDS011;4904;49.152;11.004;2022-07-11T03:34:21;1.42;;;1.20;;
9729;SDS011;4904;49.152;11.004;2022-07-11T03:36:48;2.28;;;1.30;;
9729;SDS011;4904;49.152;11.004;2022-07-11T03:39:16;1.33;;;1.23;;
9729;SDS011;4904;49.152;11.004;2022-07-11T03:41:43;2.80;;;1.38;;
9729;SDS011;4904;49.152;11.004;2022-07-11T03:44:10;1.10;;;1.00;;
9729;SDS011;4904;49.152;11.004;2022-07-11T03:46:37;1.52;;;1.33;;
9729;SDS011;4904;49.152;11.004;2022-07-11T03:49:04;1.75;;;1.30;;
9729;SDS011;4904;49.152;11.004;2022-07-11T03:51:31;2.42;;;1.20;;
9729;SDS011;4904;49.152;11.004;2022-07-11T03:53:58;1.50;;;1.38;;
9729;SDS011;4904;49.152;11.004;2022-07-11T03:56:26;2.22;;;1.50;;
9729;SDS011;4904;49.152;11.004;2022-07-11T03:58:53;1.50;;;1.40;;
9729;SDS011;4904;49.152;11.004;2022-07-11T04:01:20;2.00;;;1.30;;
9729;SDS011;4904;49.152;11.004;2022-07-11T04:03:47;1.95;;;1.50;;
9729;SDS011;4904;49.152;11.004;2022-07-11T04:06:14;1.92;;;1.30;;
9729;SDS011;4904;49.152;11.004;2022-07-11T04:08:41;2.40;;;1.70;;
9729;SDS011;4904;49.152;11.004;2022-07-11T04:11:08;1.23;;;1.20;;
9729;SDS011;4904;49.152;11.004;2022-07-11T04:13:37;1.55;;;1.17;;
9729;SDS011;4904;49.152;11.004;2022-07-11T04:16:05;3.95;;;1.60;;
9729;SDS011;4904;49.152;11.004;2022-07-11T04:18:32;1.50;;;1.38;;
9729;SDS011;4904;49.152;11.004;2022-07-11T04:20:59;1.58;;;1.30;;
9729;SDS011;4904;49.152;11.004;2022-07-11T04:23:26;1.65;;;1.45;;
9729;SDS011;4904;49.152;11.004;2022-07-11T04:25:53;1.60;;;1.50;;
9729;SDS011;4904;49.152;11.004;2022-07-11T04:28:19;1.52;;;1.42;;
9729;SDS011;4904;49.152;11.004;2022-07-11T04:30:48;2.20;;;1.50;;
9729;SDS011;4904;49.152;11.004;2022-07-11T04:33:15;1.70;;;1.60;;
9729;SDS011;4904;49.152;11.004;2022-07-11T04:35:41;1.80;;;1.50;;
9729;SDS011;4904;49.152;11.004;2022-07-11T04:38:08;1.45;;;1.35;;
9729;SDS011;4904;49.152;11.004;2022-07-11T04:40:35;1.50;;;1.40;;
9729;SDS011;4904;49.152;11.004;2022-07-11T04:43:02;1.75;;;1.40;;
9729;SDS011;4904;49.152;11.004;2022-07-11T04:45:30;1.35;;;1.25;;
9729;SDS011;4904;49.152;11.004;2022-07-11T04:47:58;2.20;;;1.50;;
9729;SDS011;4904;49.152;11.004;2022-07-11T04:50:26;1.88;;;1.38;;
9729;SDS011;4904;49.152;11.004;2022-07-11T04:52:53;1.85;;;1.48;;
9729;SDS011;4904;49.152;11.004;2022-07-11T04:55:20;1.50;;;1.40;;
9729;SDS011;4904;49.152;11.004;2022-07-11T04:57:47;1.50;;;1.40;;
9729;SDS011;4904;49.152;11.004;2022-07-11T05:00:15;1.80;;;1.50;;
9729;SDS011;4904;49.152;11.004;2022-07-11T05:02:42;1.60;;;1.50;;
9729;SDS011;4904;49.152;11.004;2022-07-11T05:05:10;1.58;;;1.40;;
9729;SDS011;4904;49.152;11.004;2022-07-11T05:07:38;1.83;;;1.73;;
9729;SDS011;4904;49.152;11.004;2022-07-11T05:10:05;1.40;;;1.30;;
9729;SDS011;4904;49.152;11.004;2022-07-11T05:12:33;1.67;;;1.58;;
9729;SDS011;4904;49.152;11.004;2022-07-11T05:15:00;2.55;;;1.77;;
9729;SDS011;4904;49.152;11.004;2022-07-11T05:17:27;1.75;;;1.40;;
9729;SDS011;4904;49.152;11.004;2022-07-11T05:19:54;1.80;;;1.55;;
9729;SDS011;4904;49.152;11.004;2022-07-11T05:22:22;2.42;;;1.70;;
9729;SDS011;4904;49.152;11.004;2022-07-11T05:24:49;1.60;;;1.50;;
9729;SDS011;4904;49.152;11.004;2022-07-11T05:27:16;1.98;;;1.85;;
9729;SDS011;4904;49.152;11.004;2022-07-11T05:29:43;1.90;;;1.50;;
9729;SDS011;4904;49.152;11.004;2022-07-11T05:32:10;2.05;;;1.58;;
9729;SDS011;4904;49.152;11.004;2022-07-11T05:34:37;1.75;;;1.65;;
9729;SDS011;4904;49.152;11.004;2022-07-11T05:37:04;1.73;;;1.60;;
9729;SDS011;4904;49.152;11.004;2022-07-11T05:39:33;4.20;;;1.80;;
9729;SDS011;4904;49.152;11.004;2022-07-11T05:42:01;2.15;;;1.92;;
9729;SDS011;4904;49.152;11.004;2022-07-11T05:44:28;2.10;;;1.85;;
9729;SDS011;4904;49.152;11.004;2022-07-11T05:46:58;2.08;;;1.88;;
9729;SDS011;4904;49.152;11.004;2022-07-11T05:49:26;2.28;;;1.80;;
9729;SDS011;4904;49.152;11.004;2022-07-11T05:51:53;2.53;;;1.70;;
9729;SDS011;4904;49.152;11.004;2022-07-11T05:54:20;4.47;;;1.60;;
9729;SDS011;4904;49.152;11.004;2022-07-11T05:56:49;2.05;;;1.67;;
9729;SDS011;4904;49.152;11.004;2022-07-11T05:59:15;1.50;;;1.40;;
9729;SDS011;4904;49.152;11.004;2022-07-11T06:01:42;1.52;;;1.40;;
9729;SDS011;4904;49.152;11.004;2022-07-11T06:04:09;3.10;;;1.80;;
9729;SDS011;4904;49.152;11.004;2022-07-11T06:06:37;2.58;;;1.42;;
9729;SDS011;4904;49.152;11.004;2022-07-11T06:09:04;1.50;;;1.40;;
9729;SDS011;4904;49.152;11.004;2022-07-11T06:11:30;1.60;;;1.50;;
9729;SDS011;4904;49.152;11.004;2022-07-11T06:13:59;1.50;;;1.40;;
9729;SDS011;4904;49.152;11.004;2022-07-11T06:16:26;1.58;;;1.48;;
9729;SDS011;4904;49.152;11.004;2022-07-11T06:18:53;1.90;;;1.80;;
9729;SDS011;4904;49.152;11.004;2022-07-11T06:21:20;2.03;;;1.73;;
9729;SDS011;4904;49.152;11.004;2022-07-11T06:23:47;1.50;;;1.40;;
9729;SDS011;4904;49.152;11.004;2022-07-11T06:26:14;1.48;;;1.38;;
9729;SDS011;4904;49.152;11.004;2022-07-11T06:28:41;1.50;;;1.40;;
9729;SDS011;4904;49.152;11.004;2022-07-11T06:31:10;1.45;;;1.13;;
9729;SDS011;4904;49.152;11.004;2022-07-11T06:33:37;1.67;;;1.58;;
9729;SDS011;4904;49.152;11.004;2022-07-11T06:36:05;1.65;;;1.55;;
9729;SDS011;4904;49.152;11.004;2022-07-11T06:38:33;1.50;;;1.40;;
9729;SDS011;4904;49.152;11.004;2022-07-11T06:41:00;1.42;;;1.33;;
9729;SDS011;4904;49.152;11.004;2022-07-11T06:43:28;9.25;;;1.30;;
9729;SDS011;4904;49.152;11.004;2022-07-11T06:45:55;1.50;;;1.40;;
9729;SDS011;4904;49.152;11.004;2022-07-11T06:48:24;1.40;;;1.30;;
9729;SDS011;4904;49.152;11.004;2022-07-11T06:50:52;1.65;;;1.33;;
9729;SDS011;4904;49.152;11.004;2022-07-11T06:53:19;1.30;;;1.20;;
9729;SDS011;4904;49.152;11.004;2022-07-11T06:55:46;1.70;;;1.60;;
9729;SDS011;4904;49.152;11.004;2022-07-11T06:58:13;1.27;;;1.17;;
9729;SDS011;4904;49.152;11.004;2022-07-11T07:00:56;1.17;;;1.08;;
9729;SDS011;4904;49.152;11.004;2022-07-11T07:03:25;1.40;;;1.30;;
9729;SDS011;4904;49.152;11.004;2022-07-11T07:05:53;1.73;;;1.35;;
9729;SDS011;4904;49.152;11.004;2022-07-11T07:08:21;1.20;;;1.20;;
9729;SDS011;4904;49.152;11.004;2022-07-11T07:10:49;1.23;;;1.20;;
9729;SDS011;4904;49.152;11.004;2022-07-11T07:13:16;1.60;;;1.50;;
9729;SDS011;4904;49.152;11.004;2022-07-11T07:15:43;1.48;;;1.38;;
9729;SDS011;4904;49.152;11.004;2022-07-11T07:18:10;1.85;;;1.08;;
9729;SDS011;4904;49.152;11.004;2022-07-11T07:20:39;1.08;;;1.02;;
9729;SDS011;4904;49.152;11.004;2022-07-11T07:23:06;1.20;;;1.08;;
9729;SDS011;4904;49.152;11.004;2022-07-11T07:25:33;1.27;;;1.20;;
9729;SDS011;4904;49.152;11.004;2022-07-11T07:28:00;1.30;;;1.20;;
9729;SDS011;4904;49.152;11.004;2022-07-11T07:30:27;1.33;;;1.20;;
9729;SDS011;4904;49.152;11.004;2022-07-11T07:32:54;1.30;;;1.20;;
9729;SDS011;4904;49.152;11.004;2022-07-11T07:35:21;1.00;;;1.00;;
9729;SDS011;4904;49.152;11.004;2022-07-11T07:37:49;1.30;;;1.20;;
9729;SDS011;4904;49.152;11.004;2022-07-11T07:40:16;1.13;;;1.13;;
9729;SDS011;4904;49.152;11.004;2022-07-11T07:42:43;1.02;;;1.00;;
9729;SDS011;4904;49.152;11.004;2022-07-11T07:45:10;1.38;;;1.27;;
9729;SDS011;4904;49.152;11.004;2022-07-11T07:47:37;1.23;;;1.23;;
9729;SDS011;4904;49.152;11.004;2022-07-11T07:50:04;1.30;;;1.20;;
9729;SDS011;4904;49.152;11.004;2022-07-11T07:52:32;0.88;;;0.88;;
9729;SDS011;4904;49.152;11.004;2022-07-11T07:55:00;0.80;;;0.80;;
9729;SDS011;4904;49.152;11.004;2022-07-11T07:57:27;1.60;;;1.10;;
9729;SDS011;4904;49.152;11.004;2022-07-11T07:59:54;1.10;;;1.10;;
9729;SDS011;4904;49.152;11.004;2022-07-11T08:02:41;1.30;;;1.10;;
9729;SDS011;4904;49.152;11.004;2022-07-11T08:05:07;1.00;;;1.00;;
9729;SDS011;4904;49.152;11.004;2022-07-11T08:07:35;6.70;;;1.55;;
9729;SDS011;4904;49.152;11.004;2022-07-11T08:10:04;2.20;;;1.02;;
9729;SDS011;4904;49.152;11.004;2022-07-11T08:12:31;1.10;;;1.00;;
9729;SDS011;4904;49.152;11.004;2022-07-11T08:14:58;1.08;;;1.08;;
9729;SDS011;4904;49.152;11.004;2022-07-11T08:17:25;0.95;;;0.95;;
9729;SDS011;4904;49.152;11.004;2022-07-11T08:19:52;0.90;;;0.90;;
9729;SDS011;4904;49.152;11.004;2022-07-11T08:22:19;0.90;;;0.90;;
9729;SDS011;4904;49.152;11.004;2022-07-11T08:24:46;1.13;;;1.13;;
9729;SDS011;4904;49.152;11.004;2022-07-11T08:27:14;1.00;;;1.00;;
9729;SDS011;4904;49.152;11.004;2022-07-11T08:29:41;1.55;;;1.13;;
9729;SDS011;4904;49.152;11.004;2022-07-11T08:32:08;1.00;;;1.00;;
9729;SDS011;4904;49.152;11.004;2022-07-11T08:34:36;0.90;;;0.90;;
9729;SDS011;4904;49.152;11.004;2022-07-11T08:37:03;2.17;;;1.40;;
9729;SDS011;4904;49.152;11.004;2022-07-11T08:39:30;1.70;;;1.30;;
9729;SDS011;4904;49.152;11.004;2022-07-11T08:41:57;1.25;;;1.25;;
9729;SDS011;4904;49.152;11.004;2022-07-11T08:44:25;1.23;;;1.23;;
9729;SDS011;4904;49.152;11.004;2022-07-11T08:46:53;1.33;;;1.23;;
9729;SDS011;4904;49.152;11.004;2022-07-11T08:49:20;1.38;;;1.30;;
9729;SDS011;4904;49.152;11.004;2022-07-11T08:51:48;1.27;;;1.17;;
9729;SDS011;4904;49.152;11.004;2022-07-11T08:54:15;1.30;;;1.20;;
9729;SDS011;4904;49.152;11.004;2022-07-11T08:56:43;1.08;;;1.08;;
9729;SDS011;4904;49.152;11.004;2022-07-11T08:59:12;1.25;;;1.17;;
9729;SDS011;4904;49.152;11.004;2022-07-11T09:01:44;1.00;;;1.00;;
9729;SDS011;4904;49.152;11.004;2022-07-11T09:04:12;1.30;;;1.20;;
9729;SDS011;4904;49.152;11.004;2022-07-11T09:06:41;1.08;;;1.00;;
9729;SDS011;4904;49.152;11.004;2022-07-11T09:09:08;1.13;;;1.10;;
9729;SDS011;4904;49.152;11.004;2022-07-11T09:11:48;1.33;;;1.10;;
9729;SDS011;4904;49.152;11.004;2022-07-11T09:14:20;0.90;;;0.90;;
9729;SDS011;4904;49.152;11.004;2022-07-11T09:16:53;1.50;;;1.20;;
9729;SDS011;4904;49.152;11.004;2022-07-11T09:19:21;1.45;;;1.35;;
9729;SDS011;4904;49.152;11.004;2022-07-11T09:21:59;1.17;;;1.17;;
9729;SDS011;4904;49.152;11.004;2022-07-11T09:24:51;1.40;;;1.30;;
9729;SDS011;4904;49.152;11.004;2022-07-11T09:27:44;1.75;;;1.20;;
9729;SDS011;4904;49.152;11.004;2022-07-11T09:30:19;1.15;;;1.15;;
9729;SDS011;4904;49.152;11.004;2022-07-11T09:32:55;2.03;;;1.27;;
9729;SDS011;4904;49.152;11.004;2022-07-11T09:35:24;2.15;;;1.30;;
9729;SDS011;4904;49.152;11.004;2022-07-11T09:37:53;1.75;;;1.20;;
9729;SDS011;4904;49.152;11.004;2022-07-11T09:40:20;2.13;;;1.20;;
9729;SDS011;4904;49.152;11.004;2022-07-11T09:42:49;2.83;;;1.40;;
9729;SDS011;4904;49.152;11.004;2022-07-11T09:45:17;1.40;;;1.30;;
9729;SDS011;4904;49.152;11.004;2022-07-11T09:47:46;1.60;;;1.38;;
9729;SDS011;4904;49.152;11.004;2022-07-11T09:50:14;1.25;;;1.25;;
9729;SDS011;4904;49.152;11.004;2022-07-11T09:52:57;1.40;;;1.30;;
9729;SDS011;4904;49.152;11.004;2022-07-11T09:55:25;1.30;;;1.20;;
9729;SDS011;4904;49.152;11.004;2022-07-11T09:57:53;1.30;;;1.30;;
9729;SDS011;4904;49.152;11.004;2022-07-11T10:00:19;1.33;;;1.23;;
9729;SDS011;4904;49.152;11.004;2022-07-11T10:02:46;1.50;;;1.40;;
9729;SDS011;4904;49.152;11.004;2022-07-11T10:05:15;1.50;;;1.40;;
9729;SDS011;4904;49.152;11.004;2022-07-11T10:07:42;1.45;;;1.35;;
9729;SDS011;4904;49.152;11.004;2022-07-11T10:10:09;1.67;;;1.58;;
9729;SDS011;4904;49.152;11.004;2022-07-11T10:12:36;1.40;;;1.30;;
9729;SDS011;4904;49.152;11.004;2022-07-11T10:15:04;1.45;;;1.40;;
9729;SDS011;4904;49.152;11.004;2022-07-11T10:17:36;2.38;;;1.50;;
9729;SDS011;4904;49.152;11.004;2022-07-11T10:20:13;1.65;;;1.55;;
9729;SDS011;4904;49.152;11.004;2022-07-11T10:22:50;1.65;;;1.55;;
9729;SDS011;4904;49.152;11.004;2022-07-11T10:25:24;1.67;;;1.58;;
9729;SDS011;4904;49.152;11.004;2022-07-11T10:28:08;1.60;;;1.50;;
9729;SDS011;4904;49.152;11.004;2022-07-11T10:30:48;1.92;;;1.77;;
9729;SDS011;4904;49.152;11.004;2022-07-11T10:33:17;2.20;;;2.03;;
9729;SDS011;4904;49.152;11.004;2022-07-11T10:35:46;2.22;;;2.13;;
9729;SDS011;4904;49.152;11.004;2022-07-11T10:38:15;2.40;;;2.20;;
9729;SDS011;4904;49.152;11.004;2022-07-11T10:40:43;1.90;;;1.80;;
9729;SDS011;4904;49.152;11.004;2022-07-11T10:43:12;2.10;;;1.95;;
9729;SDS011;4904;49.152;11.004;2022-07-11T10:45:57;1.95;;;1.85;;
9729;SDS011;4904;49.152;11.004;2022-07-11T10:48:25;1.80;;;1.70;;
9729;SDS011;4904;49.152;11.004;2022-07-11T10:51:03;2.10;;;1.90;;
9729;SDS011;4904;49.152;11.004;2022-07-11T10:53:39;2.13;;;2.00;;
9729;SDS011;4904;49.152;11.004;2022-07-11T10:56:14;2.30;;;2.08;;
9729;SDS011;4904;49.152;11.004;2022-07-11T10:59:01;2.35;;;1.90;;
9729;SDS011;4904;49.152;11.004;2022-07-11T11:01:36;2.45;;;2.25;;
9729;SDS011;4904;49.152;11.004;2022-07-11T11:04:46;2.17;;;1.98;;
9729;SDS011;4904;49.152;11.004;2022-07-11T11:07:29;2.30;;;2.10;;
9729;SDS011;4904;49.152;11.004;2022-07-11T11:09:58;2.28;;;2.17;;
9729;SDS011;4904;49.152;11.004;2022-07-11T11:15:32;2.72;;;2.30;;
9729;SDS011;4904;49.152;11.004;2022-07-11T11:18:07;3.03;;;2.72;;
9729;SDS011;4904;49.152;11.004;2022-07-11T11:21:16;2.65;;;2.40;;
9729;SDS011;4904;49.152;11.004;2022-07-11T11:24:04;3.22;;;2.60;;
9729;SDS011;4904;49.152;11.004;2022-07-11T11:26:46;2.97;;;2.67;;
9729;SDS011;4904;49.152;11.004;2022-07-11T11:29:18;3.30;;;2.60;;
9729;SDS011;4904;49.152;11.004;2022-07-11T11:31:51;2.72;;;2.50;;
9729;SDS011;4904;49.152;11.004;2022-07-11T11:34:19;3.45;;;2.40;;
9729;SDS011;4904;49.152;11.004;2022-07-11T11:36:53;3.10;;;2.80;;
9729;SDS011;4904;49.152;11.004;2022-07-11T11:39:25;3.03;;;2.58;;
9729;SDS011;4904;49.152;11.004;2022-07-11T11:42:00;2.58;;;2.38;;
9729;SDS011;4904;49.152;11.004;2022-07-11T11:44:31;2.65;;;2.05;;
9729;SDS011;4904;49.152;11.004;2022-07-11T11:46:58;2.25;;;2.05;;
9729;SDS011;4904;49.152;11.004;2022-07-11T11:49:25;2.78;;;2.60;;
9729;SDS011;4904;49.152;11.004;2022-07-11T11:51:54;2.45;;;2.15;;
9729;SDS011;4904;49.152;11.004;2022-07-11T11:54:22;2.50;;;2.30;;
9729;SDS011;4904;49.152;11.004;2022-07-11T11:56:51;1.75;;;1.65;;
9729;SDS011;4904;49.152;11.004;2022-07-11T11:59:18;2.70;;;2.17;;
9729;SDS011;4904;49.152;11.004;2022-07-11T12:01:55;2.55;;;1.90;;
9729;SDS011;4904;49.152;11.004;2022-07-11T12:04:22;2.50;;;1.65;;
9729;SDS011;4904;49.152;11.004;2022-07-11T12:06:49;1.75;;;1.65;;
9729;SDS011;4904;49.152;11.004;2022-07-11T12:09:17;1.73;;;1.50;;
9729;SDS011;4904;49.152;11.004;2022-07-11T12:11:47;2.75;;;1.67;;
9729;SDS011;4904;49.152;11.004;2022-07-11T12:14:35;2.45;;;1.48;;
9729;SDS011;4904;49.152;11.004;2022-07-11T12:17:02;3.22;;;1.63;;
9729;SDS011;4904;49.152;11.004;2022-07-11T12:19:32;1.77;;;1.65;;
9729;SDS011;4904;49.152;11.004;2022-07-11T12:22:03;1.90;;;1.70;;
9729;SDS011;4904;49.152;11.004;2022-07-11T12:24:31;2.55;;;1.73;;
9729;SDS011;4904;49.152;11.004;2022-07-11T12:27:00;3.25;;;1.70;;
9729;SDS011;4904;49.152;11.004;2022-07-11T12:29:27;1.95;;;1.70;;
9729;SDS011;4904;49.152;11.004;2022-07-11T12:31:54;1.90;;;1.80;;
9729;SDS011;4904;49.152;11.004;2022-07-11T12:34:23;1.60;;;1.55;;
9729;SDS011;4904;49.152;11.004;2022-07-11T12:37:00;3.25;;;1.92;;
9729;SDS011;4904;49.152;11.004;2022-07-11T12:39:29;2.17;;;1.98;;
9729;SDS011;4904;49.152;11.004;2022-07-11T12:41:57;2.20;;;1.73;;
9729;SDS011;4904;49.152;11.004;2022-07-11T12:44:27;3.55;;;2.30;;
9729;SDS011;4904;49.152;11.004;2022-07-11T12:47:12;2.50;;;1.92;;
9729;SDS011;4904;49.152;11.004;2022-07-11T12:49:41;4.60;;;2.00;;
9729;SDS011;4904;49.152;11.004;2022-07-11T12:52:10;2.38;;;2.17;;
9729;SDS011;4904;49.152;11.004;2022-07-11T12:54:38;2.70;;;1.80;;
9729;SDS011;4904;49.152;11.004;2022-07-11T12:57:07;2.53;;;2.00;;
9729;SDS011;4904;49.152;11.004;2022-07-11T12:59:35;1.80;;;1.70;;
9729;SDS011;4904;49.152;11.004;2022-07-11T13:02:06;2.25;;;2.08;;
9729;SDS011;4904;49.152;11.004;2022-07-11T13:04:36;1.92;;;1.70;;
9729;SDS011;4904;49.152;11.004;2022-07-11T13:07:23;2.25;;;1.60;;
9729;SDS011;4904;49.152;11.004;2022-07-11T13:10:08;2.53;;;1.70;;
9729;SDS011;4904;49.152;11.004;2022-07-11T13:12:38;1.83;;;1.73;;
9729;SDS011;4904;49.152;11.004;2022-07-11T13:15:06;2.03;;;1.92;;
9729;SDS011;4904;49.152;11.004;2022-07-11T13:17:37;1.88;;;1.77;;
9729;SDS011;4904;49.152;11.004;2022-07-11T13:20:06;1.80;;;1.70;;
9729;SDS011;4904;49.152;11.004;2022-07-11T13:22:35;1.85;;;1.75;;
9729;SDS011;4904;49.152;11.004;2022-07-11T13:25:02;2.33;;;2.13;;
9729;SDS011;4904;49.152;11.004;2022-07-11T13:27:30;1.90;;;1.80;;
9729;SDS011;4904;49.152;11.004;2022-07-11T13:29:59;2.03;;;1.92;;
9729;SDS011;4904;49.152;11.004;2022-07-11T13:32:26;2.13;;;2.03;;
9729;SDS011;4904;49.152;11.004;2022-07-11T13:34:53;2.58;;;1.80;;
9729;SDS011;4904;49.152;11.004;2022-07-11T13:37:20;2.50;;;2.40;;
9729;SDS011;4904;49.152;11.004;2022-07-11T13:39:47;2.85;;;2.65;;
9729;SDS011;4904;49.152;11.004;2022-07-11T13:42:14;2.38;;;2.17;;
9729;SDS011;4904;49.152;11.004;2022-07-11T13:44:41;2.42;;;2.33;;
9729;SDS011;4904;49.152;11.004;2022-07-11T13:47:09;2.30;;;2.20;;
9729;SDS011;4904;49.152;11.004;2022-07-11T13:49:37;2.72;;;2.42;;
9729;SDS011;4904;49.152;11.004;2022-07-11T13:52:04;2.50;;;2.30;;
9729;SDS011;4904;49.152;11.004;2022-07-11T13:54:31;2.10;;;2.00;;
9729;SDS011;4904;49.152;11.004;2022-07-11T13:56:58;3.05;;;2.55;;
9729;SDS011;4904;49.152;11.004;2022-07-11T13:59:26;2.40;;;2.30;;
9729;SDS011;4904;49.152;11.004;2022-07-11T14:01:53;2.47;;;2.28;;
9729;SDS011;4904;49.152;11.004;2022-07-11T14:04:21;2.58;;;2.38;;
9729;SDS011;4904;49.152;11.004;2022-07-11T14:06:48;2.38;;;2.17;;
9729;SDS011;4904;49.152;11.004;2022-07-11T14:09:15;3.10;;;2.80;;
9729;SDS011;4904;49.152;11.004;2022-07-11T14:11:42;2.40;;;2.20;;
9729;SDS011;4904;49.152;11.004;2022-07-11T14:14:09;2.40;;;2.25;;
9729;SDS011;4904;49.152;11.004;2022-07-11T14:16:36;2.70;;;2.50;;
9729;SDS011;4904;49.152;11.004;2022-07-11T14:19:03;2.83;;;2.50;;
9729;SDS011;4904;49.152;11.004;2022-07-11T14:21:34;3.67;;;2.50;;
9729;SDS011;4904;49.152;11.004;2022-07-11T14:24:01;2.75;;;2.17;;
9729;SDS011;4904;49.152;11.004;2022-07-11T14:26:28;2.75;;;2.58;;
9729;SDS011;4904;49.152;11.004;2022-07-11T14:28:55;2.92;;;2.20;;
9729;SDS011;4904;49.152;11.004;2022-07-11T14:31:22;2.10;;;2.00;;
9729;SDS011;4904;49.152;11.004;2022-07-11T14:33:49;4.35;;;2.85;;
9729;SDS011;4904;49.152;11.004;2022-07-11T14:36:18;7.07;;;5.40;;
9729;SDS011;4904;49.152;11.004;2022-07-11T14:38:47;2.13;;;2.03;;
9729;SDS011;4904;49.152;11.004;2022-07-11T14:41:14;1.65;;;1.55;;
9729;SDS011;4904;49.152;11.004;2022-07-11T14:43:42;1.90;;;1.80;;
9729;SDS011;4904;49.152;11.004;2022-07-11T14:46:09;1.90;;;1.80;;
9729;SDS011;4904;49.152;11.004;2022-07-11T14:48:36;1.40;;;1.30;;
9729;SDS011;4904;49.152;11.004;2022-07-11T14:51:03;2.95;;;1.70;;
9729;SDS011;4904;49.152;11.004;2022-07-11T14:53:30;1.88;;;1.77;;
9729;SDS011;4904;49.152;11.004;2022-07-11T14:55:59;1.60;;;1.50;;
9729;SDS011;4904;49.152;11.004;2022-07-11T14:58:26;1.73;;;1.63;;
9729;SDS011;4904;49.152;11.004;2022-07-11T15:00:53;1.45;;;1.40;;
9729;SDS011;4904;49.152;11.004;2022-07-11T15:03:19;1.67;;;1.58;;
9729;SDS011;4904;49.152;11.004;2022-07-11T15:06:09;1.63;;;1.52;;
9729;SDS011;4904;49.152;11.004;2022-07-11T15:08:37;1.65;;;1.55;;
9729;SDS011;4904;49.152;11.004;2022-07-11T15:11:23;1.75;;;1.65;;
9729;SDS011;4904;49.152;11.004;2022-07-11T15:14:08;1.70;;;1.60;;
9729;SDS011;4904;49.152;11.004;2022-07-11T15:16:35;1.60;;;1.50;;